KNZY

Details ICAO KNZY (NZY)
Name San Diego North Island NAS
Region United States
Timezone America/Los_Angeles (UTC-7.0)
Plans Departing 61
Arriving 49
Stats Elevation 26 ft / 8 m (AMSL)
Location 32.698154° -117.213036°
Runways 2
Magnetic Variation 11.478° E
Sunrise 2018-06-24 12:43:29 UTC / 2018-06-24 05:43:29 Local
Sunset 2018-06-25 03:01:34 UTC / 2018-06-24 20:01:34 Local
Advertisement - Login to hide

Runways

ID Width Length Bearing (true) Bearing (mag) Surface Threshold Offset Overrun Length
11 300 ft / 91 m 7,497 ft / 2,285 m 122.10° 110.62° Asphalt 0 ft / 0 m 200 ft / 61 m
18 200 ft / 61 m 8,021 ft / 2,445 m 195.39° 183.91° Asphalt 0 ft / 0 m 600 ft / 183 m
29 300 ft / 91 m 7,497 ft / 2,285 m 302.12° 290.64° Asphalt 0 ft / 0 m 0 ft / 0 m
36 200 ft / 61 m 8,021 ft / 2,445 m 15.39° 3.91° Asphalt 0 ft / 0 m 600 ft / 183 m

Map

Weather


0- 5 10 15 20 25 30 35+ Temperature / ° C

Clouds and Precipitation
Forecast for 2018-06-24 18:00 UTC. Updated 5 hours ago

Ground ~20,000 ft ~40,000 ft Winds

METAR

KNZY 241952Z 21011KT 10SM FEW024 20/13 A2996 RMK AO2 SLP144 T02000133

TAF

TAF KNZY 2415/2515 19009KT 9999 OVC020 QNH2988INS BECMG 2417/2418 20010KT 9999 SCT025 QNH2984INS FM250300 VRB06KT 9999 OVC015 QNH2985INS T22/2422Z T16/2512Z FS30020

Frequencies

Clearance 128.40 MHz CLNC DEL
Tower 135.10 MHz TWR
Ground 118.00 MHz GND
Approach 125.15 MHz SOCAL APP/DEP
Warning: Do not use this data for real-world aviation or navigation. No guarantee of current accuracy is given.